Time;durP1;ratioP1;P1;durP2;ratioP2;P2;SDS_P1;SDS_P2;PMS_P1;PMS_P2;Temp;Humidity;BMP_temperature;BMP_pressure;BME280_temperature;BME280_humidity;BME280_pressure;Samples;Min_cycle;Max_cycle;Signal;HPM_P1;HPM_P2
2022/01/27 00:05:16;;;;;;;11.73;7.88;;;10.40;67.60;;;;;;5067056;28;20043;-79
2022/01/27 00:07:37;;;;;;;10.18;7.80;;;10.40;67.60;;;;;;5067833;28;20081;-80
2022/01/27 00:12:33;;;;;;;11.07;6.55;;;10.40;67.70;;;;;;5084046;28;20066;-81
2022/01/27 00:15:13;;;;;;;10.40;7.93;;;10.30;67.50;;;;;;5067271;28;20424;-80
2022/01/27 00:17:56;;;;;;;11.25;7.13;;;10.40;67.80;;;;;;5067360;28;20116;-80
2022/01/27 00:20:22;;;;;;;10.02;6.70;;;10.30;67.60;;;;;;5083480;28;20048;-80
2022/01/27 00:22:48;;;;;;;9.20;6.80;;;10.30;67.70;;;;;;5068274;28;20063;-79
2022/01/27 00:25:14;;;;;;;7.90;6.60;;;10.30;67.80;;;;;;5067797;28;20035;-80
2022/01/27 00:27:41;;;;;;;9.10;7.00;;;10.30;68.30;;;;;;5066960;28;20109;-80
2022/01/27 00:30:08;;;;;;;8.00;6.68;;;10.30;67.80;;;;;;5083761;28;20032;-79
2022/01/27 00:32:35;;;;;;;10.07;7.40;;;10.30;67.90;;;;;;5066892;28;20039;-81
2022/01/27 00:35:03;;;;;;;8.88;6.82;;;10.30;68.40;;;;;;5068544;28;20119;-80
2022/01/27 00:37:29;;;;;;;14.75;7.25;;;10.20;67.70;;;;;;5067851;28;20032;-80
2022/01/27 00:39:55;;;;;;;10.30;7.20;;;10.20;67.80;;;;;;5083757;28;20063;-80
2022/01/27 00:42:22;;;;;;;12.15;7.38;;;10.30;68.00;;;;;;5067752;28;20033;-79
2022/01/27 00:44:48;;;;;;;8.57;6.68;;;10.20;67.80;;;;;;5083557;28;20123;-79
2022/01/27 00:47:14;;;;;;;11.38;6.78;;;10.20;67.80;;;;;;5067684;28;20032;-80
2022/01/27 00:49:41;;;;;;;8.57;7.25;;;10.30;68.00;;;;;;5083464;28;20054;-80
2022/01/27 00:52:11;;;;;;;11.07;7.43;;;10.30;68.10;;;;;;5066704;28;20472;-79
2022/01/27 00:54:37;;;;;;;9.20;7.28;;;10.30;68.10;;;;;;5083362;28;20052;-80
2022/01/27 00:57:10;;;;;;;9.05;6.95;;;10.20;67.90;;;;;;5066514;28;20043;-80
2022/01/27 01:02:15;;;;;;;9.65;6.75;;;10.30;68.10;;;;;;5083751;28;20028;-80
2022/01/27 01:04:46;;;;;;;12.43;7.18;;;10.30;68.10;;;;;;5067940;28;20032;-81
2022/01/27 01:07:13;;;;;;;10.13;7.38;;;10.20;67.90;;;;;;5066660;28;20032;-80
2022/01/27 01:15:06;;;;;;;11.25;7.55;;;10.30;68.20;;;;;;5078550;28;20028;-79
2022/01/27 01:17:43;;;;;;;11.68;7.63;;;10.30;68.20;;;;;;5071423;28;20024;-81
2022/01/27 01:20:33;;;;;;;13.13;7.63;;;10.20;68.00;;;;;;5067394;28;20040;-81
2022/01/27 01:33:58;;;;;;;8.60;7.20;;;10.20;68.10;;;;;;5067764;28;20115;-79
2022/01/27 01:36:43;;;;;;;10.35;7.10;;;10.20;68.10;;;;;;5065963;28;20107;-79
2022/01/27 01:39:10;;;;;;;9.63;7.70;;;10.20;68.20;;;;;;5066078;28;20051;-79
2022/01/27 01:41:36;;;;;;;12.27;7.40;;;10.20;68.20;;;;;;5065679;28;20480;-79
2022/01/27 01:44:03;;;;;;;8.25;6.82;;;10.20;68.20;;;;;;5067132;28;20078;-79
2022/01/27 01:46:29;;;;;;;11.30;6.97;;;10.20;68.20;;;;;;5065309;28;20029;-79
2022/01/27 01:48:55;;;;;;;8.38;6.82;;;10.20;68.30;;;;;;5066764;28;21060;-79
2022/01/27 01:51:27;;;;;;;9.82;7.18;;;10.20;68.30;;;;;;5067167;28;20071;-80
2022/01/27 01:53:55;;;;;;;11.07;7.40;;;10.20;68.30;;;;;;5082550;28;20031;-80
2022/01/27 01:56:21;;;;;;;9.02;7.05;;;10.20;68.30;;;;;;5065582;28;20033;-79
2022/01/27 01:58:48;;;;;;;8.32;6.80;;;10.20;68.30;;;;;;5066518;28;20106;-80
2022/01/27 02:01:15;;;;;;;13.00;8.25;;;10.30;68.50;;;;;;5066835;28;20467;-79
2022/01/27 02:03:41;;;;;;;11.02;7.00;;;10.30;68.50;;;;;;5065287;28;20408;-79
2022/01/27 02:06:15;;;;;;;11.18;7.68;;;10.20;68.30;;;;;;5067416;28;20032;-80
2022/01/27 02:09:12;;;;;;;8.25;6.45;;;10.20;68.40;;;;;;5066513;28;20771;-80
2022/01/27 02:19:44;;;;;;;10.43;7.00;;;10.20;68.40;;;;;;5064793;28;20082;-80
2022/01/27 02:22:10;;;;;;;8.63;6.10;;;10.30;68.60;;;;;;5066820;28;20059;-80
2022/01/27 02:24:37;;;;;;;10.00;6.78;;;10.20;68.40;;;;;;5066418;28;20128;-81
2022/01/27 02:27:04;;;;;;;8.57;6.43;;;10.30;68.70;;;;;;5065966;28;20043;-81
2022/01/27 02:29:31;;;;;;;9.95;6.35;;;10.30;68.70;;;;;;5059319;28;20110;-81
2022/01/27 02:31:59;;;;;;;10.05;6.05;;;10.30;68.80;;;;;;5047556;28;20626;-81
2022/01/27 02:34:26;;;;;;;7.88;5.72;;;10.30;68.80;;;;;;5047236;28;20052;-81
2022/01/27 02:36:52;;;;;;;7.40;5.22;;;10.30;68.80;;;;;;5046968;28;20037;-81
2022/01/27 02:39:19;;;;;;;8.80;5.78;;;10.30;68.80;;;;;;5050931;28;20021;-81
2022/01/27 02:41:50;;;;;;;9.85;5.22;;;10.30;68.80;;;;;;5068699;28;20127;-81
2022/01/27 02:44:21;;;;;;;11.45;6.63;;;10.30;68.80;;;;;;5052403;28;20086;-80
2022/01/27 02:46:50;;;;;;;8.27;5.50;;;10.20;68.70;;;;;;5071713;28;20040;-80
2022/01/27 02:49:16;;;;;;;8.48;4.75;;;10.30;68.90;;;;;;5072086;28;20119;-79
2022/01/27 02:51:42;;;;;;;7.25;4.70;;;10.20;68.80;;;;;;5073168;28;20119;-79
2022/01/27 02:54:08;;;;;;;9.15;4.60;;;10.20;68.80;;;;;;5072070;28;20041;-79
2022/01/27 02:56:34;;;;;;;13.18;6.70;;;10.20;68.80;;;;;;5072166;28;20372;-79
2022/01/27 02:59:00;;;;;;;9.57;5.15;;;10.20;68.80;;;;;;5073119;28;20029;-79
2022/01/27 03:01:26;;;;;;;9.20;4.90;;;10.20;68.90;;;;;;5071884;28;20052;-79
2022/01/27 03:03:52;;;;;;;9.15;5.00;;;10.20;68.90;;;;;;5072850;28;20386;-79
2022/01/27 03:06:18;;;;;;;9.25;4.70;;;10.20;68.90;;;;;;5073084;28;20460;-79
2022/01/27 03:08:44;;;;;;;19.45;6.85;;;10.20;68.90;;;;;;5072937;28;20119;-79
2022/01/27 03:11:17;;;;;;;7.93;5.10;;;10.20;68.90;;;;;;5071894;28;20028;-79
2022/01/27 03:13:43;;;;;;;10.57;4.70;;;10.20;68.90;;;;;;5072663;28;20533;-81
2022/01/27 03:16:10;;;;;;;10.02;4.65;;;10.20;69.00;;;;;;5073686;28;20127;-80
2022/01/27 03:18:36;;;;;;;10.30;3.90;;;10.20;68.90;;;;;;5073321;28;20024;-81
2022/01/27 03:21:05;;;;;;;8.55;5.22;;;10.20;69.00;;;;;;5071479;28;20055;-81
2022/01/27 03:23:33;;;;;;;8.00;4.88;;;10.30;69.20;;;;;;5072120;28;20045;-81
2022/01/27 03:25:59;;;;;;;8.25;4.45;;;10.20;69.00;;;;;;5076133;28;20036;-80
2022/01/27 03:28:28;;;;;;;8.70;4.97;;;10.30;69.20;;;;;;5075504;28;20050;-81
2022/01/27 03:30:54;;;;;;;6.82;3.70;;;10.30;69.20;;;;;;5076194;28;20494;-81
2022/01/27 03:33:20;;;;;;;7.40;4.63;;;10.30;69.20;;;;;;5074975;28;20028;-81
2022/01/27 03:35:46;;;;;;;8.13;4.65;;;10.30;69.20;;;;;;5075489;28;20037;-81
2022/01/27 03:38:12;;;;;;;11.90;5.22;;;10.30;69.20;;;;;;5074179;28;20131;-81
2022/01/27 03:40:41;;;;;;;9.05;4.45;;;10.30;69.20;;;;;;5073615;28;20039;-80
2022/01/27 03:43:09;;;;;;;8.73;4.75;;;10.30;69.20;;;;;;5074715;28;20021;-80
2022/01/27 03:45:35;;;;;;;10.25;5.05;;;10.30;69.20;;;;;;5072882;28;20029;-80
2022/01/27 03:48:03;;;;;;;8.48;4.93;;;10.40;69.30;;;;;;5073701;28;20229;-81
2022/01/27 03:50:29;;;;;;;8.60;4.70;;;10.30;69.20;;;;;;5072136;28;20052;-80
2022/01/27 03:52:55;;;;;;;9.27;4.53;;;10.30;69.20;;;;;;5073124;28;20040;-80
2022/01/27 03:55:21;;;;;;;8.63;4.78;;;10.40;69.40;;;;;;5073069;28;20032;-81
2022/01/27 03:57:47;;;;;;;7.53;4.78;;;10.40;69.40;;;;;;5088537;28;20028;-81
2022/01/27 04:00:14;;;;;;;8.95;4.18;;;10.40;69.40;;;;;;5072194;28;20455;-80
2022/01/27 04:02:53;;;;;;;8.80;4.25;;;10.40;69.40;;;;;;5076263;28;20032;-81
2022/01/27 04:05:19;;;;;;;10.48;3.88;;;10.30;69.30;;;;;;5072650;28;20074;-81
2022/01/27 04:07:46;;;;;;;10.15;4.55;;;10.40;69.50;;;;;;5072622;28;20514;-80
2022/01/27 04:10:12;;;;;;;9.65;3.88;;;10.30;69.40;;;;;;5072879;28;20032;-79
2022/01/27 04:12:38;;;;;;;8.88;4.18;;;10.30;69.40;;;;;;5071729;28;20021;-79
2022/01/27 04:15:05;;;;;;;6.82;3.95;;;10.40;69.60;;;;;;5073380;28;20046;-79
2022/01/27 04:17:32;;;;;;;10.30;3.85;;;10.30;69.50;;;;;;5072930;28;20678;-79
2022/01/27 04:19:58;;;;;;;7.32;3.78;;;10.40;69.70;;;;;;5074522;28;20120;-78
2022/01/27 04:22:24;;;;;;;8.15;3.83;;;10.40;69.70;;;;;;5074901;28;20439;-79
2022/01/27 04:24:50;;;;;;;9.35;4.15;;;10.40;69.80;;;;;;5071452;28;20340;-79
2022/01/27 04:27:21;;;;;;;9.13;4.10;;;10.40;69.80;;;;;;5073540;28;20141;-81
2022/01/27 04:29:47;;;;;;;12.63;3.90;;;10.30;69.70;;;;;;5071375;28;20115;-81
2022/01/27 04:32:20;;;;;;;9.57;4.90;;;10.40;69.80;;;;;;5072305;28;20123;-81
2022/01/27 04:34:46;;;;;;;;;;;10.40;69.90;;;;;;5087482;28;20032;-81
2022/01/27 04:37:13;;;;;;;6.97;3.92;;;10.40;69.90;;;;;;5071952;28;19915;-80
2022/01/27 04:39:51;;;;;;;9.70;3.90;;;10.40;69.80;;;;;;5070320;28;20037;-81
2022/01/27 04:42:30;;;;;;;11.45;4.63;;;10.40;69.90;;;;;;5054496;28;20045;-82
2022/01/27 04:45:01;;;;;;;9.90;3.88;;;10.40;69.90;;;;;;5071187;28;20421;-81
2022/01/27 04:47:34;;;;;;;13.30;4.10;;;10.40;70.00;;;;;;5070332;28;20131;-81
2022/01/27 04:50:01;;;;;;;9.48;3.60;;;10.30;69.90;;;;;;5071420;28;20103;-81
2022/01/27 04:52:30;;;;;;;10.15;4.00;;;10.40;70.10;;;;;;5071765;28;20055;-81
2022/01/27 04:55:03;;;;;;;6.18;3.35;;;10.40;70.10;;;;;;5071081;28;20384;-81
2022/01/27 04:57:30;;;;;;;8.82;4.43;;;10.30;70.00;;;;;;5070922;28;20096;-81
2022/01/27 04:59:57;;;;;;;12.07;4.00;;;10.30;70.10;;;;;;5071165;28;20028;-81
2022/01/27 05:02:36;;;;;;;7.20;3.58;;;10.40;70.30;;;;;;5070944;28;20063;-81
2022/01/27 05:05:04;;;;;;;8.07;4.15;;;10.40;70.30;;;;;;5072869;28;20020;-82
2022/01/27 05:07:30;;;;;;;10.15;3.90;;;10.40;70.40;;;;;;5073283;28;20051;-80
2022/01/27 05:10:01;;;;;;;9.02;3.47;;;10.30;70.30;;;;;;5070866;28;21959;-80
2022/01/27 05:14:59;;;;;;;13.52;4.85;;;10.30;70.30;;;;;;5076587;28;20017;-80
2022/01/27 05:17:25;;;;;;;11.95;4.25;;;10.30;70.40;;;;;;5070856;28;20031;-79
2022/01/27 05:19:51;;;;;;;7.63;3.47;;;10.30;70.40;;;;;;5072553;28;20032;-80
2022/01/27 05:22:17;;;;;;;8.45;4.05;;;10.30;70.90;;;;;;5089918;28;20052;-80
2022/01/27 05:24:44;;;;;;;7.55;3.20;;;10.30;70.40;;;;;;5074585;28;20028;-81
2022/01/27 05:27:10;;;;;;;10.77;4.05;;;10.40;70.60;;;;;;5094524;28;20037;-80
2022/01/27 05:29:36;;;;;;;10.73;3.45;;;10.40;70.60;;;;;;5092913;28;20024;-80
2022/01/27 05:32:02;;;;;;;13.18;5.65;;;10.40;70.70;;;;;;5092072;28;20032;-81
2022/01/27 05:34:28;;;;;;;9.95;3.60;;;10.40;70.70;;;;;;5093304;28;20036;-79
2022/01/27 05:36:54;;;;;;;9.38;3.65;;;10.40;70.70;;;;;;5091079;28;20070;-81
2022/01/27 05:39:20;;;;;;;8.48;3.53;;;10.40;70.70;;;;;;5090664;28;20029;-80
2022/01/27 05:41:46;;;;;;;6.30;3.10;;;10.40;70.70;;;;;;5094538;28;20055;-81
2022/01/27 05:44:12;;;;;;;12.23;3.47;;;10.40;70.80;;;;;;5094139;28;20021;-80
2022/01/27 05:46:38;;;;;;;7.57;3.08;;;10.40;70.80;;;;;;5089586;28;20133;-78
2022/01/27 05:49:04;;;;;;;8.25;3.10;;;10.40;70.80;;;;;;5082234;28;20036;-80
2022/01/27 05:51:30;;;;;;;10.75;3.60;;;10.40;70.90;;;;;;5103592;28;20028;-81
2022/01/27 05:53:56;;;;;;;17.45;4.78;;;10.40;70.90;;;;;;5075659;28;20032;-81
2022/01/27 05:56:22;;;;;;;8.38;2.60;;;10.40;71.00;;;;;;5067073;28;20032;-81
2022/01/27 05:58:48;;;;;;;9.98;3.38;;;10.40;71.00;;;;;;5066587;28;20145;-81
2022/01/27 06:01:14;;;;;;;8.65;2.97;;;10.40;71.00;;;;;;5050063;28;20204;-81
2022/01/27 06:03:40;;;;;;;9.77;3.30;;;10.40;71.00;;;;;;5068375;28;20107;-81
2022/01/27 06:06:07;;;;;;;9.35;3.50;;;10.50;71.20;;;;;;5065867;28;20534;-80
2022/01/27 06:08:33;;;;;;;9.73;3.15;;;10.40;71.10;;;;;;5063068;28;20033;-81
2022/01/27 06:10:59;;;;;;;12.30;3.53;;;10.50;71.30;;;;;;5049851;28;20397;-81
2022/01/27 06:13:26;;;;;;;9.20;3.38;;;10.50;71.30;;;;;;5047102;28;20021;-80
2022/01/27 06:15:52;;;;;;;7.78;3.20;;;10.50;71.30;;;;;;5058334;28;20424;-81
2022/01/27 06:18:18;;;;;;;10.45;3.08;;;10.40;71.10;;;;;;5058648;28;20017;-81
2022/01/27 06:20:45;;;;;;;10.50;3.97;;;10.50;71.30;;;;;;5064388;28;20053;-78
2022/01/27 06:23:12;;;;;;;8.60;3.10;;;10.50;71.30;;;;;;5058099;28;20036;-79
2022/01/27 06:25:41;;;;;;;15.88;3.58;;;10.50;71.30;;;;;;5050819;28;20106;-80
2022/01/27 06:28:07;;;;;;;12.05;3.70;;;10.50;71.30;;;;;;5055020;28;20029;-80
2022/01/27 06:30:34;;;;;;;10.88;3.72;;;10.60;71.50;;;;;;5069230;28;20472;-80
2022/01/27 06:33:04;;;;;;;7.07;3.40;;;10.50;71.40;;;;;;5070715;28;20387;-81
2022/01/27 06:35:31;;;;;;;8.10;3.83;;;10.60;71.60;;;;;;5069395;28;20024;-78
2022/01/27 06:37:57;;;;;;;12.07;3.58;;;10.50;71.40;;;;;;5069073;28;21063;-81
2022/01/27 06:40:23;;;;;;;9.30;3.35;;;10.60;71.70;;;;;;5069939;28;20140;-80
2022/01/27 06:42:49;;;;;;;11.27;3.08;;;10.60;71.70;;;;;;5045696;28;20021;-81
2022/01/27 06:45:15;;;;;;;10.30;3.13;;;10.60;71.70;;;;;;5059386;28;20032;-79
2022/01/27 06:47:41;;;;;;;11.02;2.80;;;10.50;71.60;;;;;;5060013;28;20032;-79
2022/01/27 06:50:08;;;;;;;8.25;2.97;;;10.60;71.80;;;;;;5064638;28;20029;-79
2022/01/27 06:52:35;;;;;;;6.57;3.22;;;10.60;72.00;;;;;;5052869;28;20057;-75
2022/01/27 06:55:03;;;;;;;8.60;2.22;;;10.60;72.10;;;;;;5048524;28;20043;-77
2022/01/27 06:57:29;;;;;;;10.23;2.92;;;10.60;72.10;;;;;;5059060;28;20899;-79
2022/01/27 06:59:55;;;;;;;9.70;2.38;;;10.60;72.10;;;;;;5068537;28;20107;-79
2022/01/27 07:02:22;;;;;;;9.80;2.38;;;10.70;72.30;;;;;;5060152;28;20039;-79
2022/01/27 07:04:49;;;;;;;8.05;2.72;;;10.70;72.40;;;;;;5067994;28;20032;-78
2022/01/27 07:07:15;;;;;;;9.32;2.90;;;10.70;72.40;;;;;;5068007;28;20036;-78
2022/01/27 07:09:41;;;;;;;6.93;2.85;;;10.70;72.40;;;;;;5050738;28;20028;-79
2022/01/27 07:12:08;;;;;;;9.57;2.78;;;10.70;72.40;;;;;;5068990;28;20020;-77
2022/01/27 07:14:35;;;;;;;5.95;2.20;;;10.70;72.50;;;;;;5070073;28;20549;-79
2022/01/27 07:17:03;;;;;;;8.60;2.75;;;10.70;72.50;;;;;;5056516;28;20024;-80
2022/01/27 07:19:29;;;;;;;6.80;2.08;;;10.70;72.50;;;;;;5067648;28;20056;-79
2022/01/27 07:21:55;;;;;;;6.00;2.50;;;10.70;72.50;;;;;;5069338;28;20044;-79
2022/01/27 07:24:21;;;;;;;8.00;2.63;;;10.70;72.50;;;;;;5085523;28;20032;-80
2022/01/27 07:26:47;;;;;;;6.72;2.47;;;10.80;72.70;;;;;;5085031;28;20498;-78
2022/01/27 07:29:13;;;;;;;7.68;2.80;;;10.80;72.70;;;;;;5069640;28;20025;-78
2022/01/27 07:31:39;;;;;;;6.20;2.10;;;10.80;72.80;;;;;;5069578;28;20055;-77
2022/01/27 07:34:05;;;;;;;6.50;2.72;;;10.80;72.80;;;;;;5051793;28;20368;-79
2022/01/27 07:36:31;;;;;;;7.28;2.70;;;10.80;72.90;;;;;;5068031;28;20039;-79
2022/01/27 07:38:58;;;;;;;9.35;2.03;;;10.80;72.90;;;;;;5067930;28;20439;-80
2022/01/27 07:41:24;;;;;;;6.68;2.35;;;10.80;73.00;;;;;;5068298;28;20222;-80
2022/01/27 07:43:50;;;;;;;5.47;2.05;;;10.80;73.00;;;;;;5051399;28;20670;-79
2022/01/27 07:46:16;;;;;;;8.23;2.00;;;10.80;73.10;;;;;;5069634;28;20033;-80
2022/01/27 07:48:43;;;;;;;4.80;2.10;;;10.80;73.10;;;;;;5069140;28;20052;-80
2022/01/27 07:51:10;;;;;;;5.15;2.20;;;10.80;73.20;;;;;;5066287;28;20028;-81
2022/01/27 07:53:38;;;;;;;6.95;1.83;;;10.80;73.20;;;;;;5068504;28;20174;-81
2022/01/27 07:56:04;;;;;;;5.05;2.17;;;10.80;73.30;;;;;;5069159;28;20510;-80
2022/01/27 07:58:32;;;;;;;7.28;3.95;;;10.90;73.40;;;;;;5067720;28;20044;-77
2022/01/27 08:00:59;;;;;;;6.47;2.20;;;10.80;73.30;;;;;;5068059;28;20044;-78
2022/01/27 08:03:25;;;;;;;6.35;2.10;;;10.90;73.50;;;;;;5067699;28;20286;-82
2022/01/27 08:05:51;;;;;;;9.88;3.25;;;10.90;74.00;;;;;;5067336;28;20032;-79
2022/01/27 08:08:18;;;;;;;4.63;2.03;;;10.90;73.40;;;;;;5069077;28;20025;-81
2022/01/27 08:10:45;;;;;;;7.32;2.30;;;10.90;73.40;;;;;;5068500;28;20518;-80
2022/01/27 08:13:11;;;;;;;4.85;2.00;;;10.90;73.40;;;;;;5067408;28;20115;-83
2022/01/27 08:15:37;;;;;;;6.15;2.15;;;10.90;73.40;;;;;;5069294;28;20115;-83
2022/01/27 08:18:04;;;;;;;5.10;2.40;;;10.90;73.40;;;;;;5067706;28;20025;-82
2022/01/27 08:20:31;;;;;;;6.15;1.60;;;11.00;73.60;;;;;;5068263;28;20071;-81
2022/01/27 08:22:58;;;;;;;5.07;1.80;;;11.00;73.60;;;;;;5068155;28;20029;-79
2022/01/27 08:25:25;;;;;;;5.18;1.58;;;11.00;73.60;;;;;;5066867;28;20048;-80
2022/01/27 08:27:55;;;;;;;5.35;1.60;;;11.00;73.60;;;;;;5066879;28;20599;-79
2022/01/27 08:30:24;;;;;;;4.85;1.77;;;11.00;73.60;;;;;;5066793;28;20024;-79
2022/01/27 08:32:58;;;;;;;3.60;1.40;;;11.10;73.80;;;;;;5067156;28;20030;-81
2022/01/27 08:35:25;;;;;;;5.80;2.70;;;11.00;73.70;;;;;;5068185;28;20026;-80
2022/01/27 08:37:52;;;;;;;5.70;1.38;;;11.10;73.90;;;;;;5067052;28;20035;-79
2022/01/27 08:40:18;;;;;;;5.05;1.42;;;11.10;73.90;;;;;;5066734;28;20032;-80
2022/01/27 08:42:45;;;;;;;5.97;2.67;;;11.10;73.90;;;;;;5068456;28;20032;-81
2022/01/27 08:45:13;;;;;;;5.30;1.60;;;11.10;74.00;;;;;;5068378;28;20121;-80
2022/01/27 08:47:40;;;;;;;3.17;1.35;;;11.10;74.00;;;;;;5068691;28;20045;-80
2022/01/27 08:50:08;;;;;;;6.57;1.52;;;11.10;74.00;;;;;;5050624;28;20065;-80
2022/01/27 08:52:35;;;;;;;3.75;1.83;;;11.10;74.00;;;;;;5069111;28;20036;-80
2022/01/27 08:55:01;;;;;;;4.40;2.00;;;11.10;74.00;;;;;;5071005;28;20024;-81
2022/01/27 08:57:27;;;;;;;4.30;1.17;;;11.20;74.20;;;;;;5070060;28;20020;-79
2022/01/27 08:59:53;;;;;;;4.43;1.80;;;11.20;74.20;;;;;;5069187;28;20031;-79
2022/01/27 09:02:20;;;;;;;2.30;1.17;;;11.20;74.20;;;;;;5086516;28;20472;-81
2022/01/27 09:04:47;;;;;;;2.03;1.00;;;11.20;74.20;;;;;;5052702;28;20031;-81
2022/01/27 09:07:15;;;;;;;3.15;1.17;;;11.20;74.20;;;;;;5057322;28;20040;-81
2022/01/27 09:09:45;;;;;;;5.20;2.53;;;11.30;74.40;;;;;;5080329;28;20040;-81
2022/01/27 09:12:12;;;;;;;2.60;1.30;;;11.30;74.40;;;;;;5050407;28;20037;-81
2022/01/27 09:14:41;;;;;;;4.55;1.20;;;11.30;74.30;;;;;;5053505;28;20029;-81
2022/01/27 09:17:11;;;;;;;4.05;0.90;;;11.30;74.40;;;;;;5048836;28;20037;-81
2022/01/27 09:19:40;;;;;;;2.72;1.10;;;11.30;74.40;;;;;;5065047;28;20024;-80
2022/01/27 09:22:12;;;;;;;4.32;1.38;;;11.30;74.40;;;;;;5067249;28;20468;-78
2022/01/27 09:24:49;;;;;;;2.42;0.90;;;11.30;74.50;;;;;;5068172;28;20120;-79
2022/01/27 09:27:15;;;;;;;3.17;1.05;;;11.30;74.50;;;;;;5082762;28;20417;-78
2022/01/27 09:29:41;;;;;;;2.65;0.90;;;11.30;74.50;;;;;;5067411;28;20488;-79
2022/01/27 09:32:09;;;;;;;3.92;1.15;;;11.40;74.70;;;;;;5067600;28;20032;-79
2022/01/27 09:34:35;;;;;;;4.80;0.93;;;11.40;74.70;;;;;;5066786;28;20037;-80
2022/01/27 09:37:02;;;;;;;3.40;1.40;;;11.40;74.70;;;;;;5067471;28;20586;-79
2022/01/27 09:39:31;;;;;;;3.20;0.90;;;11.40;74.80;;;;;;5067260;28;20395;-80
2022/01/27 09:41:58;;;;;;;1.83;0.75;;;11.40;74.80;;;;;;5066309;28;20411;-79
2022/01/27 09:44:31;;;;;;;4.68;1.27;;;11.40;74.80;;;;;;5068127;28;20021;-79
2022/01/27 09:47:03;;;;;;;4.30;0.80;;;11.40;74.80;;;;;;5065219;28;20032;-80
2022/01/27 09:49:43;;;;;;;4.57;1.40;;;11.40;74.80;;;;;;5069247;28;20047;-80
2022/01/27 09:52:10;;;;;;;4.30;1.17;;;11.40;74.80;;;;;;5070407;28;20025;-78
2022/01/27 09:54:36;;;;;;;4.60;0.93;;;11.50;75.00;;;;;;5075191;28;20110;-81
2022/01/27 09:57:04;;;;;;;2.88;1.05;;;11.50;74.90;;;;;;5050787;28;20072;-80
2022/01/27 09:59:30;;;;;;;4.68;1.10;;;11.50;74.90;;;;;;5067483;28;20028;-79
2022/01/27 10:02:06;;;;;;;3.45;2.08;;;11.50;74.90;;;;;;5049737;28;20040;-80
2022/01/27 10:04:42;;;;;;;3.50;1.00;;;11.60;75.00;;;;;;5051176;28;20033;-79
2022/01/27 10:07:09;;;;;;;2.35;0.70;;;11.60;75.00;;;;;;5051455;28;20388;-80
2022/01/27 10:09:36;;;;;;;3.55;1.50;;;11.60;75.00;;;;;;5067790;28;20032;-83
2022/01/27 10:12:04;;;;;;;2.70;1.83;;;11.70;75.10;;;;;;5071629;28;20144;-84
2022/01/27 10:14:36;;;;;;;4.85;1.98;;;11.70;75.00;;;;;;5072075;28;20356;-78
2022/01/27 10:17:08;;;;;;;4.60;1.23;;;11.80;75.10;;;;;;5069756;28;20033;-78
2022/01/27 10:19:36;;;;;;;5.43;2.33;;;11.80;75.10;;;;;;5070993;28;20384;-78
2022/01/27 10:22:04;;;;;;;5.90;2.65;;;11.90;75.20;;;;;;5059474;28;20071;-82
2022/01/27 10:24:33;;;;;;;3.03;1.13;;;12.00;75.20;;;;;;5032976;28;20139;-81
2022/01/27 10:27:32;;;;;;;3.80;1.15;;;12.10;75.30;;;;;;5065007;28;20044;-80
2022/01/27 10:33:09;;;;;;;3.08;0.93;;;12.20;75.20;;;;;;5051172;28;20070;-81
2022/01/27 10:35:37;;;;;;;4.00;1.08;;;12.30;75.40;;;;;;5064270;28;20048;-80
2022/01/27 10:38:09;;;;;;;3.10;1.00;;;12.30;75.20;;;;;;5070804;28;20025;-80
2022/01/27 10:40:42;;;;;;;2.65;1.13;;;12.40;75.30;;;;;;5069221;28;20040;-77
2022/01/27 10:43:16;;;;;;;3.60;1.35;;;12.50;75.40;;;;;;5069637;28;20125;-77
2022/01/27 10:46:29;;;;;;;3.60;1.10;;;12.50;75.30;;;;;;5070555;28;20058;-77
2022/01/27 10:49:01;;;;;;;3.17;1.08;;;12.50;75.30;;;;;;5069489;28;20088;-77
2022/01/27 10:51:39;;;;;;;3.05;1.35;;;12.60;75.30;;;;;;5071022;28;20035;-80
2022/01/27 14:13:58;;;;;;;5.13;2.75;;;14.80;74.00;;;;;;5037289;28;20057;-75
2022/01/27 14:16:28;;;;;;;5.05;2.70;;;14.90;73.90;;;;;;5014567;28;20047;-75
2022/01/27 14:18:55;;;;;;;4.60;2.60;;;14.90;74.40;;;;;;5019662;28;20470;-76
2022/01/27 14:21:24;;;;;;;6.10;2.63;;;14.90;73.70;;;;;;5022860;28;20041;-76
2022/01/27 14:29:07;;;;;;;5.30;2.78;;;15.10;73.50;;;;;;5025360;28;20113;-75
2022/01/27 14:31:35;;;;;;;2.50;2.30;;;15.10;73.30;;;;;;5026649;28;20036;-75
2022/01/27 14:34:01;;;;;;;3.30;1.90;;;15.20;73.40;;;;;;5026868;28;20029;-76
2022/01/27 14:36:27;;;;;;;4.05;1.95;;;15.20;73.30;;;;;;5028729;28;20037;-77
2022/01/27 14:38:54;;;;;;;3.90;1.80;;;15.20;73.20;;;;;;5031360;28;20041;-75
2022/01/27 14:41:20;;;;;;;3.92;2.22;;;15.10;73.00;;;;;;5031611;28;20618;-76
2022/01/27 14:43:47;;;;;;;2.22;1.83;;;15.10;72.90;;;;;;5031251;28;20161;-76
2022/01/27 14:46:21;;;;;;;4.43;1.90;;;15.10;72.90;;;;;;5031021;28;20385;-76
2022/01/27 14:48:53;;;;;;;4.65;2.38;;;15.00;72.80;;;;;;5031057;28;20029;-75
2022/01/27 14:51:20;;;;;;;3.10;2.38;;;14.90;72.70;;;;;;5029284;28;20040;-75
2022/01/27 14:53:48;;;;;;;4.07;1.67;;;14.80;72.60;;;;;;5029642;28;20088;-77
2022/01/27 14:56:14;;;;;;;4.70;3.53;;;14.80;72.80;;;;;;5031035;28;20071;-77
2022/01/27 14:58:40;;;;;;;5.78;2.05;;;14.70;72.70;;;;;;5028996;28;20029;-78
2022/01/27 15:01:06;;;;;;;2.22;1.60;;;14.60;72.60;;;;;;5030399;28;20484;-78
2022/01/27 15:03:33;;;;;;;6.13;4.25;;;14.50;72.60;;;;;;5030314;28;20026;-77
2022/01/27 15:05:59;;;;;;;3.28;2.03;;;14.50;72.70;;;;;;5031063;28;20043;-78
2022/01/27 15:08:25;;;;;;;6.32;3.05;;;14.40;72.60;;;;;;5032968;28;20487;-77
2022/01/27 15:10:52;;;;;;;3.58;2.25;;;14.30;72.60;;;;;;5030602;28;20260;-75
2022/01/27 15:13:20;;;;;;;3.53;1.77;;;14.30;72.70;;;;;;5032946;28;20062;-76
2022/01/27 15:18:49;;;;;;;3.83;1.80;;;14.10;72.60;;;;;;5031206;28;20091;-76
2022/01/27 15:21:17;;;;;;;5.28;2.08;;;14.10;72.80;;;;;;5029423;28;20478;-76
2022/01/27 15:23:43;;;;;;;1.98;1.30;;;14.00;73.20;;;;;;5030541;28;20087;-76
2022/01/27 15:26:10;;;;;;;3.63;1.80;;;13.90;72.60;;;;;;5030844;28;20025;-76
2022/01/27 15:28:36;;;;;;;2.10;1.52;;;13.90;72.70;;;;;;5029787;28;20128;-75
2022/01/27 15:31:02;;;;;;;3.60;2.05;;;13.80;72.60;;;;;;5030254;28;20486;-75
2022/01/27 15:33:30;;;;;;;3.67;1.63;;;13.80;72.60;;;;;;5029821;28;20025;-76
2022/01/27 15:36:02;;;;;;;2.55;1.23;;;13.80;72.70;;;;;;5028219;28;20388;-76
2022/01/27 15:38:33;;;;;;;3.40;1.30;;;13.70;72.60;;;;;;5029851;28;20087;-76
2022/01/27 15:41:00;;;;;;;3.08;1.30;;;13.70;72.70;;;;;;5029177;28;20041;-76
2022/01/27 15:43:26;;;;;;;4.38;1.45;;;13.70;72.80;;;;;;5029292;28;20124;-76
2022/01/27 15:45:53;;;;;;;4.72;1.55;;;13.60;72.70;;;;;;5029097;28;20574;-75
2022/01/27 15:48:19;;;;;;;3.03;1.58;;;13.70;72.80;;;;;;5029556;28;20056;-76
2022/01/27 15:50:45;;;;;;;2.97;1.45;;;13.60;72.60;;;;;;5028682;28;20087;-77
2022/01/27 15:53:11;;;;;;;5.88;1.60;;;13.60;72.60;;;;;;5028643;28;20041;-76
2022/01/27 15:55:39;;;;;;;3.47;1.63;;;13.60;72.60;;;;;;5029125;28;20029;-76
2022/01/27 15:58:06;;;;;;;4.97;1.33;;;13.50;72.50;;;;;;5044509;28;20029;-76
2022/01/27 16:00:33;;;;;;;2.40;1.10;;;13.50;72.50;;;;;;5029325;28;20041;-75
2022/01/27 16:03:01;;;;;;;4.13;1.63;;;13.40;72.40;;;;;;5028352;28;20396;-76
2022/01/27 16:05:28;;;;;;;3.05;1.05;;;13.40;72.50;;;;;;5029466;28;20037;-77
2022/01/27 16:07:54;;;;;;;3.20;1.10;;;13.40;72.50;;;;;;5029513;28;20043;-75
2022/01/27 16:10:22;;;;;;;3.60;1.20;;;13.30;73.00;;;;;;5029743;28;20068;-77
2022/01/27 16:12:53;;;;;;;2.10;1.20;;;13.30;72.50;;;;;;5017724;28;20036;-76
2022/01/27 16:15:23;;;;;;;2.95;1.38;;;13.20;72.40;;;;;;5024143;28;20361;-76
2022/01/27 16:17:49;;;;;;;1.65;1.10;;;13.10;72.40;;;;;;5028524;28;20449;-75
2022/01/27 16:20:16;;;;;;;2.60;1.20;;;13.10;72.40;;;;;;5027807;28;20377;-76
2022/01/27 16:22:43;;;;;;;3.15;1.60;;;13.10;72.50;;;;;;5028843;28;20128;-77
2022/01/27 16:25:10;;;;;;;3.13;1.45;;;13.00;72.30;;;;;;5028444;28;20084;-76
2022/01/27 16:27:36;;;;;;;3.58;1.13;;;12.90;72.20;;;;;;5029119;28;20053;-76
2022/01/27 16:30:09;;;;;;;3.92;1.27;;;12.90;72.30;;;;;;5029727;28;20108;-75
2022/01/27 16:32:37;;;;;;;3.03;1.02;;;12.80;72.20;;;;;;5029646;28;20061;-76
2022/01/27 16:35:03;;;;;;;3.00;1.38;;;12.80;72.30;;;;;;5029056;28;20083;-75
2022/01/27 16:37:29;;;;;;;3.13;1.27;;;12.80;72.40;;;;;;5028804;28;20029;-75
2022/01/27 16:39:56;;;;;;;4.45;1.63;;;12.70;72.30;;;;;;5028603;28;20029;-77
2022/01/27 16:42:23;;;;;;;2.83;1.63;;;12.60;72.20;;;;;;5026977;28;20052;-76
2022/01/27 16:44:49;;;;;;;5.57;1.83;;;12.60;72.20;;;;;;5010775;28;20025;-75
2022/01/27 16:47:18;;;;;;;4.22;1.25;;;12.50;72.10;;;;;;5028310;28;20044;-77
2022/01/27 16:49:44;;;;;;;3.40;1.00;;;12.50;72.20;;;;;;5028211;28;20036;-77
2022/01/27 16:52:11;;;;;;;2.67;1.17;;;12.40;72.10;;;;;;5028476;28;20172;-77
2022/01/27 16:54:38;;;;;;;4.22;1.15;;;12.40;72.20;;;;;;5028147;28;20025;-77
2022/01/27 16:57:11;;;;;;;2.83;1.00;;;12.30;72.10;;;;;;5026941;28;20079;-77